sensor_id;sensor_type;location;lat;lon;timestamp;pressure;altitude;pressure_sealevel;temperature;humidity
72570;BME280;60594;50.204;8.844;2022-12-20T00:01:16;100555.81;;;1.16;100.00
72570;BME280;60594;50.204;8.844;2022-12-20T00:03:43;100541.63;;;1.22;100.00
72570;BME280;60594;50.204;8.844;2022-12-20T00:06:13;100551.53;;;1.37;100.00
72570;BME280;60594;50.204;8.844;2022-12-20T00:08:43;100543.84;;;1.55;100.00
72570;BME280;60594;50.204;8.844;2022-12-20T00:11:16;100549.09;;;1.55;100.00
72570;BME280;60594;50.204;8.844;2022-12-20T00:13:49;100541.72;;;1.42;100.00
72570;BME280;60594;50.204;8.844;2022-12-20T00:16:20;100532.84;;;1.46;100.00
72570;BME280;60594;50.204;8.844;2022-12-20T00:18:50;100531.88;;;1.70;100.00
72570;BME280;60594;50.204;8.844;2022-12-20T00:21:19;100530.72;;;1.77;100.00
72570;BME280;60594;50.204;8.844;2022-12-20T00:23:45;100528.38;;;1.69;100.00
72570;BME280;60594;50.204;8.844;2022-12-20T00:26:18;100527.66;;;1.66;100.00
72570;BME280;60594;50.204;8.844;2022-12-20T00:28:47;100513.31;;;1.74;100.00
72570;BME280;60594;50.204;8.844;2022-12-20T00:31:16;100521.56;;;1.87;100.00
72570;BME280;60594;50.204;8.844;2022-12-20T00:33:47;100515.81;;;1.99;100.00
72570;BME280;60594;50.204;8.844;2022-12-20T00:36:15;100508.72;;;2.01;100.00
72570;BME280;60594;50.204;8.844;2022-12-20T00:38:49;100501.88;;;1.97;100.00
72570;BME280;60594;50.204;8.844;2022-12-20T00:41:20;100500.97;;;1.98;99.92
72570;BME280;60594;50.204;8.844;2022-12-20T00:43:47;100487.09;;;1.94;100.00
72570;BME280;60594;50.204;8.844;2022-12-20T00:46:16;100494.69;;;2.02;100.00
72570;BME280;60594;50.204;8.844;2022-12-20T00:48:45;100481.78;;;1.96;100.00
72570;BME280;60594;50.204;8.844;2022-12-20T00:51:15;100478.03;;;2.01;100.00
72570;BME280;60594;50.204;8.844;2022-12-20T00:53:43;100475.47;;;2.00;99.95
72570;BME280;60594;50.204;8.844;2022-12-20T00:56:14;100476.06;;;2.06;99.82
72570;BME280;60594;50.204;8.844;2022-12-20T00:58:41;100490.13;;;2.05;99.84
72570;BME280;60594;50.204;8.844;2022-12-20T01:01:21;100478.72;;;1.85;100.00
72570;BME280;60594;50.204;8.844;2022-12-20T01:03:51;100489.66;;;1.96;100.00
72570;BME280;60594;50.204;8.844;2022-12-20T01:06:23;100480.75;;;1.78;100.00
72570;BME280;60594;50.204;8.844;2022-12-20T01:08:51;100483.53;;;1.95;100.00
72570;BME280;60594;50.204;8.844;2022-12-20T01:11:21;100494.69;;;2.02;100.00
72570;BME280;60594;50.204;8.844;2022-12-20T01:13:53;100501.63;;;2.03;99.99
72570;BME280;60594;50.204;8.844;2022-12-20T01:16:24;100500.38;;;1.70;100.00
72570;BME280;60594;50.204;8.844;2022-12-20T01:18:53;100499.38;;;1.51;100.00
72570;BME280;60594;50.204;8.844;2022-12-20T01:21:22;100506.31;;;1.52;100.00
72570;BME280;60594;50.204;8.844;2022-12-20T01:23:49;100494.28;;;1.46;100.00
72570;BME280;60594;50.204;8.844;2022-12-20T01:26:18;100508.94;;;1.30;100.00
72570;BME280;60594;50.204;8.844;2022-12-20T01:28:46;100492.31;;;1.30;100.00
72570;BME280;60594;50.204;8.844;2022-12-20T01:31:18;100502.66;;;1.34;100.00
72570;BME280;60594;50.204;8.844;2022-12-20T01:33:46;100494.66;;;1.37;100.00
72570;BME280;60594;50.204;8.844;2022-12-20T01:36:16;100493.47;;;1.46;100.00
72570;BME280;60594;50.204;8.844;2022-12-20T01:38:44;100493.38;;;1.47;100.00
72570;BME280;60594;50.204;8.844;2022-12-20T01:41:16;100494.47;;;1.42;100.00
72570;BME280;60594;50.204;8.844;2022-12-20T01:43:57;100485.81;;;1.40;100.00
72570;BME280;60594;50.204;8.844;2022-12-20T01:46:26;100497.53;;;1.53;100.00
72570;BME280;60594;50.204;8.844;2022-12-20T01:49:15;100492.03;;;1.59;100.00
72570;BME280;60594;50.204;8.844;2022-12-20T01:51:51;100490.47;;;1.55;100.00
72570;BME280;60594;50.204;8.844;2022-12-20T01:54:21;100498.34;;;1.55;100.00
72570;BME280;60594;50.204;8.844;2022-12-20T01:56:53;100487.88;;;1.53;100.00
72570;BME280;60594;50.204;8.844;2022-12-20T01:59:24;100486.75;;;1.60;100.00
72570;BME280;60594;50.204;8.844;2022-12-20T02:01:51;100473.22;;;1.69;100.00
72570;BME280;60594;50.204;8.844;2022-12-20T02:04:18;100469.56;;;1.73;100.00
72570;BME280;60594;50.204;8.844;2022-12-20T02:06:44;100467.22;;;1.87;100.00
72570;BME280;60594;50.204;8.844;2022-12-20T02:09:11;100464.31;;;1.95;100.00
72570;BME280;60594;50.204;8.844;2022-12-20T02:12:25;100468.81;;;2.13;100.00
72570;BME280;60594;50.204;8.844;2022-12-20T02:14:40;100455.34;;;2.20;100.00
72570;BME280;60594;50.204;8.844;2022-12-20T02:17:24;100456.00;;;2.25;100.00
72570;BME280;60594;50.204;8.844;2022-12-20T02:20:32;100462.63;;;2.14;99.73
72570;BME280;60594;50.204;8.844;2022-12-20T02:31:06;100424.31;;;2.28;100.00
72570;BME280;60594;50.204;8.844;2022-12-20T02:33:39;100420.72;;;2.31;100.00
72570;BME280;60594;50.204;8.844;2022-12-20T02:36:07;100421.28;;;2.17;99.54
72570;BME280;60594;50.204;8.844;2022-12-20T02:38:37;100429.44;;;2.11;100.00
72570;BME280;60594;50.204;8.844;2022-12-20T02:41:11;100424.09;;;1.93;100.00
72570;BME280;60594;50.204;8.844;2022-12-20T02:43:45;100414.09;;;1.81;100.00
72570;BME280;60594;50.204;8.844;2022-12-20T02:46:34;100411.53;;;1.79;100.00
72570;BME280;60594;50.204;8.844;2022-12-20T02:49:06;100390.06;;;1.90;100.00
72570;BME280;60594;50.204;8.844;2022-12-20T02:51:38;100399.66;;;1.91;100.00
72570;BME280;60594;50.204;8.844;2022-12-20T02:54:06;100404.25;;;1.86;100.00
72570;BME280;60594;50.204;8.844;2022-12-20T02:56:40;100413.78;;;1.88;100.00
72570;BME280;60594;50.204;8.844;2022-12-20T02:59:20;100415.31;;;1.94;100.00
72570;BME280;60594;50.204;8.844;2022-12-20T03:01:51;100406.88;;;1.86;100.00
72570;BME280;60594;50.204;8.844;2022-12-20T03:04:20;100411.94;;;1.90;100.00
72570;BME280;60594;50.204;8.844;2022-12-20T03:07:15;100409.97;;;1.95;100.00
72570;BME280;60594;50.204;8.844;2022-12-20T03:09:44;100413.41;;;1.97;100.00
72570;BME280;60594;50.204;8.844;2022-12-20T03:12:14;100402.81;;;1.99;100.00
72570;BME280;60594;50.204;8.844;2022-12-20T03:14:42;100400.84;;;2.04;100.00
72570;BME280;60594;50.204;8.844;2022-12-20T03:17:11;100396.34;;;2.07;100.00
72570;BME280;60594;50.204;8.844;2022-12-20T03:19:39;100390.41;;;2.02;100.00
72570;BME280;60594;50.204;8.844;2022-12-20T03:22:05;100405.63;;;1.94;100.00
72570;BME280;60594;50.204;8.844;2022-12-20T03:24:33;100397.50;;;2.00;100.00
72570;BME280;60594;50.204;8.844;2022-12-20T03:27:01;100396.22;;;2.10;100.00
72570;BME280;60594;50.204;8.844;2022-12-20T03:29:28;100390.47;;;2.21;100.00
72570;BME280;60594;50.204;8.844;2022-12-20T03:31:55;100402.69;;;2.22;100.00
72570;BME280;60594;50.204;8.844;2022-12-20T03:34:21;100395.44;;;2.27;100.00
72570;BME280;60594;50.204;8.844;2022-12-20T03:36:48;100413.13;;;2.43;100.00
72570;BME280;60594;50.204;8.844;2022-12-20T03:39:16;100393.63;;;2.29;100.00
72570;BME280;60594;50.204;8.844;2022-12-20T03:41:42;100401.03;;;2.39;100.00
72570;BME280;60594;50.204;8.844;2022-12-20T03:44:11;100391.88;;;2.48;100.00
72570;BME280;60594;50.204;8.844;2022-12-20T03:46:38;100390.13;;;2.48;100.00
72570;BME280;60594;50.204;8.844;2022-12-20T03:49:05;100402.78;;;2.59;100.00
72570;BME280;60594;50.204;8.844;2022-12-20T03:51:35;100401.41;;;2.50;99.98
72570;BME280;60594;50.204;8.844;2022-12-20T03:54:02;100389.56;;;2.42;99.79
72570;BME280;60594;50.204;8.844;2022-12-20T03:56:47;100374.34;;;2.48;99.65
72570;BME280;60594;50.204;8.844;2022-12-20T03:59:14;100373.91;;;2.57;99.29
72570;BME280;60594;50.204;8.844;2022-12-20T04:01:41;100374.78;;;2.58;98.97
72570;BME280;60594;50.204;8.844;2022-12-20T04:04:09;100356.13;;;2.44;98.74
72570;BME280;60594;50.204;8.844;2022-12-20T04:06:37;100361.47;;;2.42;99.32
72570;BME280;60594;50.204;8.844;2022-12-20T04:09:04;100362.13;;;2.47;98.96
72570;BME280;60594;50.204;8.844;2022-12-20T04:11:37;100352.25;;;2.32;99.89
72570;BME280;60594;50.204;8.844;2022-12-20T04:14:08;100359.75;;;2.41;100.00
72570;BME280;60594;50.204;8.844;2022-12-20T04:16:35;100379.31;;;2.54;100.00
72570;BME280;60594;50.204;8.844;2022-12-20T04:19:02;100392.06;;;2.63;100.00
72570;BME280;60594;50.204;8.844;2022-12-20T04:21:35;100397.91;;;2.70;100.00
72570;BME280;60594;50.204;8.844;2022-12-20T04:24:04;100394.97;;;2.57;99.76
72570;BME280;60594;50.204;8.844;2022-12-20T04:26:45;100384.56;;;2.54;100.00
72570;BME280;60594;50.204;8.844;2022-12-20T04:29:13;100373.78;;;2.60;100.00
72570;BME280;60594;50.204;8.844;2022-12-20T04:31:41;100362.69;;;2.54;100.00
72570;BME280;60594;50.204;8.844;2022-12-20T04:34:08;100368.66;;;2.19;100.00
72570;BME280;60594;50.204;8.844;2022-12-20T04:36:35;100353.22;;;2.11;100.00
72570;BME280;60594;50.204;8.844;2022-12-20T04:39:08;100352.81;;;2.20;100.00
72570;BME280;60594;50.204;8.844;2022-12-20T04:41:45;100344.47;;;2.31;100.00
72570;BME280;60594;50.204;8.844;2022-12-20T04:44:13;100344.84;;;2.22;100.00
72570;BME280;60594;50.204;8.844;2022-12-20T04:46:40;100343.47;;;2.33;100.00
72570;BME280;60594;50.204;8.844;2022-12-20T04:49:11;100344.03;;;2.40;100.00
72570;BME280;60594;50.204;8.844;2022-12-20T04:51:40;100350.75;;;2.47;100.00
72570;BME280;60594;50.204;8.844;2022-12-20T04:54:06;100340.47;;;2.41;100.00
72570;BME280;60594;50.204;8.844;2022-12-20T04:56:54;100337.03;;;2.40;100.00
72570;BME280;60594;50.204;8.844;2022-12-20T04:59:22;100325.69;;;2.38;100.00
72570;BME280;60594;50.204;8.844;2022-12-20T05:01:51;100341.28;;;2.43;100.00
72570;BME280;60594;50.204;8.844;2022-12-20T05:04:40;100343.03;;;2.42;100.00
72570;BME280;60594;50.204;8.844;2022-12-20T05:07:07;100350.16;;;2.40;100.00
72570;BME280;60594;50.204;8.844;2022-12-20T05:09:36;100363.03;;;2.46;100.00
72570;BME280;60594;50.204;8.844;2022-12-20T05:12:03;100368.88;;;2.53;100.00
72570;BME280;60594;50.204;8.844;2022-12-20T05:14:31;100365.59;;;2.48;100.00
72570;BME280;60594;50.204;8.844;2022-12-20T05:16:58;100361.47;;;2.42;100.00
72570;BME280;60594;50.204;8.844;2022-12-20T05:19:27;100351.28;;;2.35;100.00
72570;BME280;60594;50.204;8.844;2022-12-20T05:21:54;100353.84;;;2.36;100.00
72570;BME280;60594;50.204;8.844;2022-12-20T05:24:44;100346.22;;;2.30;100.00
72570;BME280;60594;50.204;8.844;2022-12-20T05:27:33;100345.97;;;2.36;100.00
72570;BME280;60594;50.204;8.844;2022-12-20T05:30:00;100343.97;;;2.41;100.00
72570;BME280;60594;50.204;8.844;2022-12-20T05:32:28;100335.09;;;2.44;100.00
72570;BME280;60594;50.204;8.844;2022-12-20T05:34:58;100330.41;;;2.50;100.00
72570;BME280;60594;50.204;8.844;2022-12-20T05:37:26;100333.47;;;2.60;100.00
72570;BME280;60594;50.204;8.844;2022-12-20T05:39:53;100345.06;;;2.56;100.00
72570;BME280;60594;50.204;8.844;2022-12-20T05:42:22;100340.84;;;2.52;100.00
72570;BME280;60594;50.204;8.844;2022-12-20T05:44:51;100347.03;;;2.51;99.94
72570;BME280;60594;50.204;8.844;2022-12-20T05:47:19;100341.22;;;2.44;100.00
72570;BME280;60594;50.204;8.844;2022-12-20T05:49:46;100345.03;;;2.37;100.00
72570;BME280;60594;50.204;8.844;2022-12-20T05:52:13;100326.34;;;2.43;100.00
72570;BME280;60594;50.204;8.844;2022-12-20T05:54:41;100321.38;;;2.37;100.00
72570;BME280;60594;50.204;8.844;2022-12-20T05:57:11;100328.28;;;2.40;100.00
72570;BME280;60594;50.204;8.844;2022-12-20T05:59:41;100328.97;;;2.43;100.00
72570;BME280;60594;50.204;8.844;2022-12-20T06:02:19;100332.59;;;2.41;100.00
72570;BME280;60594;50.204;8.844;2022-12-20T06:04:48;100326.00;;;2.51;100.00
72570;BME280;60594;50.204;8.844;2022-12-20T06:07:18;100319.53;;;2.58;100.00
72570;BME280;60594;50.204;8.844;2022-12-20T06:09:47;100312.22;;;2.64;100.00
72570;BME280;60594;50.204;8.844;2022-12-20T06:12:18;100309.78;;;2.60;100.00
72570;BME280;60594;50.204;8.844;2022-12-20T06:14:46;100314.66;;;2.69;100.00
72570;BME280;60594;50.204;8.844;2022-12-20T06:17:13;100301.84;;;2.61;100.00
72570;BME280;60594;50.204;8.844;2022-12-20T06:19:40;100307.88;;;2.63;100.00
72570;BME280;60594;50.204;8.844;2022-12-20T06:22:09;100303.69;;;2.59;100.00
72570;BME280;60594;50.204;8.844;2022-12-20T06:24:42;100304.53;;;2.60;100.00
72570;BME280;60594;50.204;8.844;2022-12-20T06:27:09;100300.19;;;2.59;100.00
72570;BME280;60594;50.204;8.844;2022-12-20T06:29:39;100299.41;;;2.75;100.00
72570;BME280;60594;50.204;8.844;2022-12-20T06:32:10;100298.94;;;2.86;100.00
72570;BME280;60594;50.204;8.844;2022-12-20T06:34:38;100294.09;;;2.77;100.00
72570;BME280;60594;50.204;8.844;2022-12-20T06:37:05;100292.19;;;2.80;100.00
72570;BME280;60594;50.204;8.844;2022-12-20T06:39:34;100285.47;;;2.92;100.00
72570;BME280;60594;50.204;8.844;2022-12-20T06:42:03;100294.84;;;2.97;100.00
72570;BME280;60594;50.204;8.844;2022-12-20T06:44:30;100288.97;;;3.09;100.00
72570;BME280;60594;50.204;8.844;2022-12-20T06:46:57;100299.22;;;3.15;100.00
72570;BME280;60594;50.204;8.844;2022-12-20T06:49:25;100297.97;;;3.05;100.00
72570;BME280;60594;50.204;8.844;2022-12-20T06:51:51;100297.22;;;2.85;100.00
72570;BME280;60594;50.204;8.844;2022-12-20T06:54:23;100312.38;;;2.80;100.00
72570;BME280;60594;50.204;8.844;2022-12-20T06:56:53;100304.53;;;2.78;100.00
72570;BME280;60594;50.204;8.844;2022-12-20T06:59:20;100310.50;;;2.82;100.00
72570;BME280;60594;50.204;8.844;2022-12-20T07:01:49;100313.31;;;2.79;100.00
72570;BME280;60594;50.204;8.844;2022-12-20T07:04:17;100320.69;;;2.89;100.00
72570;BME280;60594;50.204;8.844;2022-12-20T07:06:43;100315.28;;;2.92;100.00
72570;BME280;60594;50.204;8.844;2022-12-20T07:09:10;100319.94;;;3.04;100.00
72570;BME280;60594;50.204;8.844;2022-12-20T07:11:37;100316.03;;;3.13;100.00
72570;BME280;60594;50.204;8.844;2022-12-20T07:14:04;100305.34;;;3.16;100.00
72570;BME280;60594;50.204;8.844;2022-12-20T07:16:31;100309.09;;;3.29;100.00
72570;BME280;60594;50.204;8.844;2022-12-20T07:18:58;100299.78;;;3.22;99.65
72570;BME280;60594;50.204;8.844;2022-12-20T07:21:25;100297.38;;;3.17;100.00
72570;BME280;60594;50.204;8.844;2022-12-20T07:23:53;100297.06;;;3.23;99.83
72570;BME280;60594;50.204;8.844;2022-12-20T07:26:20;100298.34;;;2.98;100.00
72570;BME280;60594;50.204;8.844;2022-12-20T07:28:47;100292.31;;;2.77;100.00
72570;BME280;60594;50.204;8.844;2022-12-20T07:31:13;100296.72;;;2.77;100.00
72570;BME280;60594;50.204;8.844;2022-12-20T07:33:41;100292.38;;;2.76;100.00
72570;BME280;60594;50.204;8.844;2022-12-20T07:36:12;100290.50;;;2.96;100.00
72570;BME280;60594;50.204;8.844;2022-12-20T07:38:41;100293.75;;;3.20;100.00
72570;BME280;60594;50.204;8.844;2022-12-20T07:41:13;100286.03;;;3.34;100.00
72570;BME280;60594;50.204;8.844;2022-12-20T07:43:40;100277.34;;;3.32;100.00
72570;BME280;60594;50.204;8.844;2022-12-20T07:46:14;100274.63;;;3.33;100.00
72570;BME280;60594;50.204;8.844;2022-12-20T07:48:42;100267.50;;;3.35;100.00
72570;BME280;60594;50.204;8.844;2022-12-20T07:51:30;100261.00;;;3.42;100.00
72570;BME280;60594;50.204;8.844;2022-12-20T07:54:05;100259.91;;;3.46;100.00
72570;BME280;60594;50.204;8.844;2022-12-20T07:56:38;100259.75;;;3.49;100.00
72570;BME280;60594;50.204;8.844;2022-12-20T07:59:06;100261.47;;;3.50;100.00
72570;BME280;60594;50.204;8.844;2022-12-20T08:01:34;100257.91;;;3.51;99.85
72570;BME280;60594;50.204;8.844;2022-12-20T08:04:12;100275.41;;;3.52;100.00
72570;BME280;60594;50.204;8.844;2022-12-20T08:06:41;100274.47;;;3.53;99.86
72570;BME280;60594;50.204;8.844;2022-12-20T08:09:10;100286.53;;;3.23;100.00
72570;BME280;60594;50.204;8.844;2022-12-20T08:11:42;100280.19;;;2.92;100.00
72570;BME280;60594;50.204;8.844;2022-12-20T08:14:10;100274.97;;;2.73;100.00
72570;BME280;60594;50.204;8.844;2022-12-20T08:16:38;100262.44;;;2.78;100.00
72570;BME280;60594;50.204;8.844;2022-12-20T08:19:05;100252.66;;;2.99;100.00
72570;BME280;60594;50.204;8.844;2022-12-20T08:21:31;100268.66;;;3.13;100.00
72570;BME280;60594;50.204;8.844;2022-12-20T08:23:59;100258.59;;;3.21;100.00
72570;BME280;60594;50.204;8.844;2022-12-20T08:26:26;100244.81;;;3.16;100.00
72570;BME280;60594;50.204;8.844;2022-12-20T08:28:53;100254.47;;;3.15;99.43
72570;BME280;60594;50.204;8.844;2022-12-20T08:31:21;100260.34;;;3.20;100.00
72570;BME280;60594;50.204;8.844;2022-12-20T08:33:47;100262.50;;;3.12;100.00
72570;BME280;60594;50.204;8.844;2022-12-20T08:36:15;100250.75;;;3.19;100.00
72570;BME280;60594;50.204;8.844;2022-12-20T08:38:42;100249.16;;;3.34;100.00
72570;BME280;60594;50.204;8.844;2022-12-20T08:41:12;100253.09;;;3.42;100.00
72570;BME280;60594;50.204;8.844;2022-12-20T08:43:40;100246.19;;;3.40;100.00
72570;BME280;60594;50.204;8.844;2022-12-20T08:46:08;100236.06;;;3.32;100.00
72570;BME280;60594;50.204;8.844;2022-12-20T08:48:35;100235.28;;;3.47;100.00
72570;BME280;60594;50.204;8.844;2022-12-20T08:51:05;100236.59;;;3.39;100.00
72570;BME280;60594;50.204;8.844;2022-12-20T08:53:34;100255.13;;;3.54;100.00
72570;BME280;60594;50.204;8.844;2022-12-20T08:56:11;100248.69;;;3.60;100.00
72570;BME280;60594;50.204;8.844;2022-12-20T08:58:43;100249.53;;;3.43;100.00
72570;BME280;60594;50.204;8.844;2022-12-20T09:01:13;100245.75;;;3.49;100.00
72570;BME280;60594;50.204;8.844;2022-12-20T09:03:42;100260.84;;;3.45;100.00
72570;BME280;60594;50.204;8.844;2022-12-20T09:06:15;100253.31;;;3.55;100.00
72570;BME280;60594;50.204;8.844;2022-12-20T09:08:43;100251.25;;;3.62;100.00
72570;BME280;60594;50.204;8.844;2022-12-20T09:11:22;100264.56;;;3.58;100.00
72570;BME280;60594;50.204;8.844;2022-12-20T09:13:52;100257.22;;;3.31;99.51
72570;BME280;60594;50.204;8.844;2022-12-20T09:16:21;100253.31;;;3.21;100.00
72570;BME280;60594;50.204;8.844;2022-12-20T09:18:54;100249.38;;;3.29;100.00
72570;BME280;60594;50.204;8.844;2022-12-20T09:21:21;100254.09;;;3.40;100.00
72570;BME280;60594;50.204;8.844;2022-12-20T09:23:53;100258.75;;;3.35;100.00
72570;BME280;60594;50.204;8.844;2022-12-20T09:26:22;100244.88;;;3.14;100.00
72570;BME280;60594;50.204;8.844;2022-12-20T09:28:49;100245.28;;;3.24;100.00
72570;BME280;60594;50.204;8.844;2022-12-20T09:31:19;100240.31;;;3.18;100.00
72570;BME280;60594;50.204;8.844;2022-12-20T09:33:48;100232.94;;;3.24;100.00
72570;BME280;60594;50.204;8.844;2022-12-20T09:36:16;100223.28;;;3.25;100.00
72570;BME280;60594;50.204;8.844;2022-12-20T09:38:44;100227.09;;;3.36;100.00
72570;BME280;60594;50.204;8.844;2022-12-20T09:41:31;100229.38;;;3.42;100.00
72570;BME280;60594;50.204;8.844;2022-12-20T09:44:01;100227.63;;;3.43;100.00
72570;BME280;60594;50.204;8.844;2022-12-20T09:46:32;100226.59;;;3.45;100.00
72570;BME280;60594;50.204;8.844;2022-12-20T09:48:59;100228.28;;;3.46;100.00
72570;BME280;60594;50.204;8.844;2022-12-20T09:51:36;100230.47;;;3.55;100.00
72570;BME280;60594;50.204;8.844;2022-12-20T09:54:39;100215.13;;;3.63;100.00
72570;BME280;60594;50.204;8.844;2022-12-20T09:57:30;100217.44;;;3.70;100.00
72570;BME280;60594;50.204;8.844;2022-12-20T09:59:59;100212.78;;;3.75;100.00
72570;BME280;60594;50.204;8.844;2022-12-20T10:02:28;100205.75;;;3.75;99.81
72570;BME280;60594;50.204;8.844;2022-12-20T10:04:56;100195.13;;;3.77;100.00
72570;BME280;60594;50.204;8.844;2022-12-20T10:07:31;100196.75;;;3.79;100.00
72570;BME280;60594;50.204;8.844;2022-12-20T10:20:54;100183.56;;;3.95;99.78
72570;BME280;60594;50.204;8.844;2022-12-20T10:26:21;100180.53;;;4.02;99.55
72570;BME280;60594;50.204;8.844;2022-12-20T10:28:48;100184.94;;;4.02;99.29
72570;BME280;60594;50.204;8.844;2022-12-20T10:31:18;100183.72;;;4.24;98.50
72570;BME280;60594;50.204;8.844;2022-12-20T10:33:45;100172.84;;;4.30;97.20
72570;BME280;60594;50.204;8.844;2022-12-20T10:36:31;100166.59;;;4.16;98.07
72570;BME280;60594;50.204;8.844;2022-12-20T10:39:04;100157.84;;;4.00;98.65
72570;BME280;60594;50.204;8.844;2022-12-20T10:41:45;100165.22;;;3.93;99.42
72570;BME280;60594;50.204;8.844;2022-12-20T10:44:26;100163.44;;;3.94;98.87
72570;BME280;60594;50.204;8.844;2022-12-20T10:46:56;100151.31;;;4.07;99.01
72570;BME280;60594;50.204;8.844;2022-12-20T10:49:37;100155.56;;;4.25;99.14
72570;BME280;60594;50.204;8.844;2022-12-20T10:54:37;100140.94;;;4.19;97.88
72570;BME280;60594;50.204;8.844;2022-12-20T10:57:28;100138.19;;;4.05;98.12
72570;BME280;60594;50.204;8.844;2022-12-20T10:59:59;100144.13;;;4.09;98.23
72570;BME280;60594;50.204;8.844;2022-12-20T11:02:29;100143.22;;;4.10;98.61
72570;BME280;60594;50.204;8.844;2022-12-20T11:07:33;100126.94;;;4.02;98.36
72570;BME280;60594;50.204;8.844;2022-12-20T11:10:20;100118.38;;;3.98;98.71
72570;BME280;60594;50.204;8.844;2022-12-20T11:13:21;100103.91;;;3.90;99.44
72570;BME280;60594;50.204;8.844;2022-12-20T11:15:50;100097.88;;;3.88;99.30
72570;BME280;60594;50.204;8.844;2022-12-20T11:23:44;100099.13;;;3.96;98.43
72570;BME280;60594;50.204;8.844;2022-12-20T11:26:45;100095.22;;;4.03;98.49
72570;BME280;60594;50.204;8.844;2022-12-20T11:37:22;100107.06;;;4.12;98.28
72570;BME280;60594;50.204;8.844;2022-12-20T11:45:14;100109.03;;;4.08;97.81
72570;BME280;60594;50.204;8.844;2022-12-20T11:50:48;100096.50;;;4.12;98.85
72570;BME280;60594;50.204;8.844;2022-12-20T11:53:22;100094.13;;;4.23;97.99
72570;BME280;60594;50.204;8.844;2022-12-20T11:55:56;100100.69;;;4.31;97.66
72570;BME280;60594;50.204;8.844;2022-12-20T11:58:29;100087.75;;;4.27;96.88
72570;BME280;60594;50.204;8.844;2022-12-20T12:01:23;100070.00;;;4.44;97.42
72570;BME280;60594;50.204;8.844;2022-12-20T12:06:34;100057.03;;;4.71;96.44
72570;BME280;60594;50.204;8.844;2022-12-20T12:09:21;100079.56;;;4.76;95.71
72570;BME280;60594;50.204;8.844;2022-12-20T12:12:03;100075.53;;;4.85;95.71
72570;BME280;60594;50.204;8.844;2022-12-20T12:17:08;100063.50;;;4.36;97.54
72570;BME280;60594;50.204;8.844;2022-12-20T12:19:42;100063.03;;;4.43;97.32
72570;BME280;60594;50.204;8.844;2022-12-20T12:22:27;100064.47;;;4.49;97.59
72570;BME280;60594;50.204;8.844;2022-12-20T12:24:57;100059.69;;;4.55;97.25
72570;BME280;60594;50.204;8.844;2022-12-20T12:27:26;100071.19;;;4.54;97.71
72570;BME280;60594;50.204;8.844;2022-12-20T12:29:55;100066.72;;;4.41;97.42
72570;BME280;60594;50.204;8.844;2022-12-20T12:35:20;100046.38;;;4.72;96.59
72570;BME280;60594;50.204;8.844;2022-12-20T12:44:21;100044.94;;;4.37;98.28
72570;BME280;60594;50.204;8.844;2022-12-20T12:46:58;100023.22;;;4.48;98.10
72570;BME280;60594;50.204;8.844;2022-12-20T12:49:31;100042.25;;;4.53;97.88
72570;BME280;60594;50.204;8.844;2022-12-20T12:51:59;100029.66;;;4.58;98.07
72570;BME280;60594;50.204;8.844;2022-12-20T12:54:29;100025.81;;;4.63;97.21
72570;BME280;60594;50.204;8.844;2022-12-20T12:57:01;100014.09;;;4.53;97.09
72570;BME280;60594;50.204;8.844;2022-12-20T13:09:51;100004.41;;;4.68;95.79
72570;BME280;60594;50.204;8.844;2022-12-20T13:15:00;99964.34;;;4.61;96.81
72570;BME280;60594;50.204;8.844;2022-12-20T13:19:54;99984.66;;;4.89;96.14
72570;BME280;60594;50.204;8.844;2022-12-20T13:22:23;99978.72;;;4.99;95.66
72570;BME280;60594;50.204;8.844;2022-12-20T13:25:01;99970.59;;;4.88;95.59
72570;BME280;60594;50.204;8.844;2022-12-20T13:27:37;99964.09;;;4.94;95.87
72570;BME280;60594;50.204;8.844;2022-12-20T13:40:37;99990.69;;;5.19;94.39
72570;BME280;60594;50.204;8.844;2022-12-20T13:51:05;99985.31;;;5.06;94.54
72570;BME280;60594;50.204;8.844;2022-12-20T13:53:36;99986.63;;;4.99;95.51
72570;BME280;60594;50.204;8.844;2022-12-20T13:56:33;99991.47;;;5.07;95.13
72570;BME280;60594;50.204;8.844;2022-12-20T13:59:06;99989.47;;;5.10;94.98
72570;BME280;60594;50.204;8.844;2022-12-20T14:01:50;100002.41;;;5.29;94.61
72570;BME280;60594;50.204;8.844;2022-12-20T14:04:40;99993.16;;;5.22;94.82
72570;BME280;60594;50.204;8.844;2022-12-20T14:07:09;99998.16;;;4.98;95.37
72570;BME280;60594;50.204;8.844;2022-12-20T14:09:38;99994.00;;;4.94;96.08
72570;BME280;60594;50.204;8.844;2022-12-20T14:12:11;99992.94;;;4.83;95.62
72570;BME280;60594;50.204;8.844;2022-12-20T14:14:42;100003.03;;;4.90;96.51
72570;BME280;60594;50.204;8.844;2022-12-20T14:17:30;99989.97;;;5.17;95.00
72570;BME280;60594;50.204;8.844;2022-12-20T14:20:15;99977.97;;;4.97;95.46
72570;BME280;60594;50.204;8.844;2022-12-20T14:22:56;99979.66;;;4.98;95.81
72570;BME280;60594;50.204;8.844;2022-12-20T14:25:36;99963.53;;;5.03;95.57
72570;BME280;60594;50.204;8.844;2022-12-20T14:28:04;99957.88;;;5.09;95.72
72570;BME280;60594;50.204;8.844;2022-12-20T14:30:41;99964.28;;;5.05;95.66
72570;BME280;60594;50.204;8.844;2022-12-20T14:33:19;99944.00;;;5.19;95.13
72570;BME280;60594;50.204;8.844;2022-12-20T14:35:50;99937.41;;;5.26;94.69
72570;BME280;60594;50.204;8.844;2022-12-20T14:38:22;99947.03;;;5.27;94.55
72570;BME280;60594;50.204;8.844;2022-12-20T14:40:58;99932.94;;;5.27;94.60
72570;BME280;60594;50.204;8.844;2022-12-20T14:43:35;99933.91;;;5.26;94.73
72570;BME280;60594;50.204;8.844;2022-12-20T14:46:18;99930.34;;;4.99;95.46
72570;BME280;60594;50.204;8.844;2022-12-20T14:48:47;99946.28;;;4.83;96.83
72570;BME280;60594;50.204;8.844;2022-12-20T14:51:20;99937.78;;;4.92;96.60
72570;BME280;60594;50.204;8.844;2022-12-20T14:53:49;99945.34;;;5.12;96.19
72570;BME280;60594;50.204;8.844;2022-12-20T14:56:19;99951.00;;;5.20;94.80